Time,TemperatureF,DewpointF,PressureIn,WindDirection,WindDirectionDegrees,WindSpeedMPH,WindSpeedGustMPH,Humidity,HourlyPrecipIn,Conditions,Clouds,dailyrainin,SoftwareType,DateUTC
2013-04-22 00:14:00,30.9,15.0,30.71,NE,36,1.0,2.0,53,0.00,,,0.00,weatherlink.com 1.10,2013-04-22 04:14:00,
2013-04-22 00:30:00,31.1,16.0,30.72,NE,44,1.0,2.0,53,0.00,,,0.00,weatherlink.com 1.10,2013-04-22 04:30:00,
2013-04-22 00:45:00,31.4,15.0,30.72,East,86,0.0,2.0,50,0.00,,,0.00,weatherlink.com 1.10,2013-04-22 04:45:00,
2013-04-22 01:00:00,31.1,16.0,30.72,WNW,294,1.0,2.0,54,0.00,,,0.00,weatherlink.com 1.10,2013-04-22 05:00:00,
2013-04-22 01:15:00,30.8,15.0,30.71,SSE,159,1.0,1.0,52,0.00,,,0.00,weatherlink.com 1.10,2013-04-22 05:15:00,
2013-04-22 01:30:00,30.8,15.0,30.71,NNE,16,1.0,3.0,53,0.00,,,0.00,weatherlink.com 1.10,2013-04-22 05:30:00,
2013-04-22 01:45:00,30.8,15.0,30.71,ENE,77,1.0,3.0,53,0.00,,,0.00,weatherlink.com 1.10,2013-04-22 05:45:00,
2013-04-22 02:00:00,31.2,16.0,30.71,East,87,0.0,2.0,54,0.00,,,0.00,weatherlink.com 1.10,2013-04-22 06:00:00,
2013-04-22 02:15:00,30.1,16.0,30.71,NNE,28,0.0,2.0,57,0.00,,,0.00,weatherlink.com 1.10,2013-04-22 06:15:00,
2013-04-22 02:30:00,30.6,15.0,30.71,West,260,0.0,4.0,53,0.00,,,0.00,weatherlink.com 1.10,2013-04-22 06:30:00,
2013-04-22 02:45:00,29.4,17.0,30.71,NE,46,2.0,2.0,61,0.00,,,0.00,weatherlink.com 1.10,2013-04-22 06:45:00,
2013-04-22 03:00:00,28.3,15.0,30.72,NE,46,0.0,1.0,59,0.00,,,0.00,weatherlink.com 1.10,2013-04-22 07:00:00,
2013-04-22 03:15:00,28.0,19.0,30.72,NE,46,2.0,2.0,68,0.00,,,0.00,weatherlink.com 1.10,2013-04-22 07:15:00,
2013-04-22 03:30:00,27.8,18.0,30.72,NE,47,2.0,3.0,66,0.00,,,0.00,weatherlink.com 1.10,2013-04-22 07:30:00,
2013-04-22 03:45:00,27.8,17.0,30.72,NE,47,2.0,2.0,65,0.00,,,0.00,weatherlink.com 1.10,2013-04-22 07:45:00,
2013-04-22 04:00:00,28.2,17.0,30.72,NE,47,2.0,2.0,63,0.00,,,0.00,weatherlink.com 1.10,2013-04-22 08:00:00,
2013-04-22 04:15:00,28.0,17.0,30.72,NE,47,0.0,1.0,64,0.00,,,0.00,weatherlink.com 1.10,2013-04-22 08:15:00,
2013-04-22 04:30:00,27.6,16.0,30.72,NE,46,0.0,1.0,61,0.00,,,0.00,weatherlink.com 1.10,2013-04-22 08:30:00,
2013-04-22 04:45:00,27.8,18.0,30.72,NE,47,1.0,1.0,67,0.00,,,0.00,weatherlink.com 1.10,2013-04-22 08:45:00,
2013-04-22 05:00:00,27.9,18.0,30.73,NE,47,1.0,1.0,66,0.00,,,0.00,weatherlink.com 1.10,2013-04-22 09:00:00,
2013-04-22 05:15:00,28.3,17.0,30.73,NE,46,1.0,2.0,63,0.00,,,0.00,weatherlink.com 1.10,2013-04-22 09:15:00,
2013-04-22 05:30:00,29.0,18.0,30.73,NE,47,1.0,1.0,63,0.00,,,0.00,weatherlink.com 1.10,2013-04-22 09:30:00,
2013-04-22 05:45:00,29.1,17.0,30.74,NE,46,0.0,2.0,62,0.00,,,0.00,weatherlink.com 1.10,2013-04-22 09:45:00,
2013-04-22 06:00:00,27.7,17.0,30.75,NE,47,0.0,1.0,65,0.00,,,0.00,weatherlink.com 1.10,2013-04-22 10:00:00,
2013-04-22 06:15:00,27.2,18.0,30.75,NE,46,0.0,0.0,68,0.00,,,0.00,weatherlink.com 1.10,2013-04-22 10:15:00,
2013-04-22 06:30:00,28.5,15.0,30.76,NE,46,0.0,1.0,57,0.00,,,0.00,weatherlink.com 1.10,2013-04-22 10:30:00,
2013-04-22 06:45:00,31.1,18.0,30.76,WSW,253,0.0,0.0,58,0.00,,,0.00,weatherlink.com 1.10,2013-04-22 10:45:00,
2013-04-22 07:00:00,33.7,15.0,30.77,SW,218,0.0,2.0,46,0.00,,,0.00,weatherlink.com 1.10,2013-04-22 11:00:00,
2013-04-22 07:15:00,35.2,14.0,30.77,SW,232,0.0,2.0,42,0.00,,,0.00,weatherlink.com 1.10,2013-04-22 11:15:00,
2013-04-22 07:30:00,36.2,15.0,30.77,South,184,1.0,5.0,42,0.00,,,0.00,weatherlink.com 1.10,2013-04-22 11:30:00,
2013-04-22 07:45:00,37.1,14.0,30.77,South,173,3.0,5.0,39,0.00,,,0.00,weatherlink.com 1.10,2013-04-22 11:45:00,
2013-04-22 08:00:00,38.1,14.0,30.77,SW,232,1.0,4.0,38,0.00,,,0.00,weatherlink.com 1.10,2013-04-22 12:00:00,
2013-04-22 08:16:00,38.6,16.0,30.76,South,184,2.0,4.0,40,0.00,,,0.00,weatherlink.com 1.10,2013-04-22 12:16:00,
2013-04-22 08:31:00,40.0,17.0,30.76,South,172,1.0,3.0,39,0.00,,,0.00,weatherlink.com 1.10,2013-04-22 12:31:00,
2013-04-22 08:46:00,40.6,17.0,30.76,SW,225,1.0,5.0,38,0.00,,,0.00,weatherlink.com 1.10,2013-04-22 12:46:00,
2013-04-22 09:01:00,41.5,16.0,30.76,SW,218,0.0,4.0,36,0.00,,,0.00,weatherlink.com 1.10,2013-04-22 13:01:00,
2013-04-22 09:16:00,42.0,18.0,30.76,SW,232,1.0,7.0,38,0.00,,,0.00,weatherlink.com 1.10,2013-04-22 13:16:00,
2013-04-22 09:31:00,41.9,14.0,30.76,SW,215,2.0,4.0,32,0.00,,,0.00,weatherlink.com 1.10,2013-04-22 13:31:00,
2013-04-22 09:46:00,42.2,14.0,30.75,East,97,1.0,6.0,32,0.00,,,0.00,weatherlink.com 1.10,2013-04-22 13:46:00,
2013-04-22 10:01:00,44.6,13.0,30.76,SW,223,2.0,7.0,28,0.00,,,0.00,weatherlink.com 1.10,2013-04-22 14:01:00,
2013-04-22 10:16:00,45.4,14.0,30.75,South,189,1.0,6.0,28,0.00,,,0.00,weatherlink.com 1.10,2013-04-22 14:16:00,
2013-04-22 10:31:00,46.3,15.0,30.75,SE,144,1.0,7.0,28,0.00,,,0.00,weatherlink.com 1.10,2013-04-22 14:31:00,
2013-04-22 10:46:00,46.7,17.0,30.75,WNW,291,0.0,7.0,30,0.00,,,0.00,weatherlink.com 1.10,2013-04-22 14:46:00,
2013-04-22 11:01:00,46.7,14.0,30.75,SW,221,6.0,6.0,27,0.00,,,0.00,weatherlink.com 1.10,2013-04-22 15:01:00,
2013-04-22 11:31:00,47.4,14.0,30.75,WSW,244,1.0,7.0,26,0.00,,,0.00,weatherlink.com 1.10,2013-04-22 15:31:00,
2013-04-22 11:46:00,47.7,18.0,30.75,WSW,250,3.0,6.0,30,0.00,,,0.00,weatherlink.com 1.10,2013-04-22 15:46:00,
2013-04-22 12:01:00,47.5,17.0,30.74,SSW,212,2.0,7.0,29,0.00,,,0.00,weatherlink.com 1.10,2013-04-22 16:01:00,
2013-04-22 12:16:00,47.9,13.0,30.74,East,96,0.0,3.0,24,0.00,,,0.00,weatherlink.com 1.10,2013-04-22 16:16:00,
2013-04-22 12:31:00,47.9,13.0,30.73,WSW,238,1.0,7.0,24,0.00,,,0.00,weatherlink.com 1.10,2013-04-22 16:31:00,
2013-04-22 12:46:00,48.5,13.0,30.72,West,274,0.0,9.0,24,0.00,,,0.00,weatherlink.com 1.10,2013-04-22 16:46:00,
2013-04-22 13:01:00,49.6,14.0,30.71,SSE,161,3.0,6.0,24,0.00,,,0.00,weatherlink.com 1.10,2013-04-22 17:01:00,
2013-04-22 13:16:00,49.2,13.0,30.70,SE,145,6.0,9.0,23,0.00,,,0.00,weatherlink.com 1.10,2013-04-22 17:16:00,
2013-04-22 13:31:00,49.2,15.0,30.69,SSE,152,7.0,9.0,25,0.00,,,0.00,weatherlink.com 1.10,2013-04-22 17:31:00,
2013-04-22 13:46:00,48.9,17.0,30.68,SSW,211,5.0,10.0,28,0.00,,,0.00,weatherlink.com 1.10,2013-04-22 17:46:00,
2013-04-22 14:01:00,49.3,16.0,30.68,SSW,204,5.0,9.0,27,0.00,,,0.00,weatherlink.com 1.10,2013-04-22 18:01:00,
2013-04-22 14:16:00,49.2,15.0,30.67,WSW,250,3.0,8.0,25,0.00,,,0.00,weatherlink.com 1.10,2013-04-22 18:16:00,
2013-04-22 14:31:00,50.8,18.0,30.67,West,269,1.0,9.0,27,0.00,,,0.00,weatherlink.com 1.10,2013-04-22 18:31:00,
2013-04-22 14:46:00,50.8,16.0,30.66,SW,225,2.0,11.0,25,0.00,,,0.00,weatherlink.com 1.10,2013-04-22 18:46:00,
2013-04-22 15:01:00,50.4,17.0,30.66,SW,227,7.0,7.0,26,0.00,,,0.00,weatherlink.com 1.10,2013-04-22 19:01:00,
2013-04-22 15:16:00,49.9,15.0,30.65,SSE,150,5.0,15.0,25,0.00,,,0.00,weatherlink.com 1.10,2013-04-22 19:16:00,
2013-04-22 15:31:00,49.6,18.0,30.65,WSW,245,3.0,9.0,28,0.00,,,0.00,weatherlink.com 1.10,2013-04-22 19:31:00,
2013-04-22 15:46:00,50.0,17.0,30.64,West,271,5.0,9.0,27,0.00,,,0.00,weatherlink.com 1.10,2013-04-22 19:46:00,
2013-04-22 16:01:00,49.3,16.0,30.64,WSW,242,4.0,10.0,27,0.00,,,0.00,weatherlink.com 1.10,2013-04-22 20:01:00,
2013-04-22 16:16:00,49.4,17.0,30.63,SSW,200,4.0,8.0,27,0.00,,,0.00,weatherlink.com 1.10,2013-04-22 20:16:00,
2013-04-22 16:31:00,49.0,15.0,30.62,SW,225,1.0,7.0,26,0.00,,,0.00,weatherlink.com 1.10,2013-04-22 20:31:00,
2013-04-22 16:47:00,48.5,16.0,30.61,South,183,1.0,9.0,27,0.00,,,0.00,weatherlink.com 1.10,2013-04-22 20:47:00,
2013-04-22 17:02:00,48.5,16.0,30.61,SW,222,1.0,5.0,27,0.00,,,0.00,weatherlink.com 1.10,2013-04-22 21:02:00,
2013-04-22 17:17:00,48.1,16.0,30.61,SE,129,2.0,9.0,28,0.00,,,0.00,weatherlink.com 1.10,2013-04-22 21:17:00,
2013-04-22 17:32:00,47.1,14.0,30.62,South,182,3.0,7.0,26,0.00,,,0.00,weatherlink.com 1.10,2013-04-22 21:32:00,
2013-04-22 17:47:00,46.1,14.0,30.62,SSW,199,3.0,6.0,27,0.00,,,0.00,weatherlink.com 1.10,2013-04-22 21:47:00,
2013-04-22 18:02:00,45.3,14.0,30.62,SSW,199,1.0,8.0,28,0.00,,,0.00,weatherlink.com 1.10,2013-04-22 22:02:00,
2013-04-22 18:17:00,44.5,14.0,30.62,SSW,206,4.0,7.0,29,0.00,,,0.00,weatherlink.com 1.10,2013-04-22 22:17:00,
2013-04-22 18:32:00,44.5,13.0,30.62,SW,219,2.0,9.0,28,0.00,,,0.00,weatherlink.com 1.10,2013-04-22 22:32:00,
2013-04-22 18:47:00,44.1,16.0,30.62,SSE,165,0.0,8.0,32,0.00,,,0.00,weatherlink.com 1.10,2013-04-22 22:47:00,
2013-04-22 19:02:00,43.2,10.0,30.62,SW,221,2.0,9.0,26,0.00,,,0.00,weatherlink.com 1.10,2013-04-22 23:02:00,
2013-04-22 19:17:00,41.9,15.0,30.61,WSW,245,0.0,5.0,33,0.00,,,0.00,weatherlink.com 1.10,2013-04-22 23:17:00,
2013-04-22 19:32:00,40.7,15.0,30.62,WSW,238,2.0,6.0,35,0.00,,,0.00,weatherlink.com 1.10,2013-04-22 23:32:00,
2013-04-22 19:47:00,40.9,9.0,30.62,SW,223,0.0,7.0,27,0.00,,,0.00,weatherlink.com 1.10,2013-04-22 23:47:00,
2013-04-22 20:02:00,40.1,10.0,30.62,SW,230,0.0,4.0,29,0.00,,,0.00,weatherlink.com 1.10,2013-04-23 00:02:00,
2013-04-22 20:17:00,38.7,12.0,30.62,SSW,207,2.0,6.0,33,0.00,,,0.00,weatherlink.com 1.10,2013-04-23 00:17:00,
2013-04-22 20:32:00,39.1,13.0,30.62,WSW,254,3.0,8.0,35,0.00,,,0.00,weatherlink.com 1.10,2013-04-23 00:32:00,
2013-04-22 20:47:00,38.6,17.0,30.62,SW,215,5.0,10.0,41,0.00,,,0.00,weatherlink.com 1.10,2013-04-23 00:47:00,
2013-04-22 21:02:00,38.3,17.0,30.63,WSW,253,5.0,7.0,42,0.00,,,0.00,weatherlink.com 1.10,2013-04-23 01:02:00,
2013-04-22 21:17:00,37.9,16.0,30.63,SW,222,2.0,6.0,41,0.00,,,0.00,weatherlink.com 1.10,2013-04-23 01:17:00,
2013-04-22 21:32:00,37.1,16.0,30.63,West,265,0.0,1.0,42,0.00,,,0.00,weatherlink.com 1.10,2013-04-23 01:32:00,
2013-04-22 21:47:00,34.8,16.0,30.62,NE,36,1.0,1.0,46,0.00,,,0.00,weatherlink.com 1.10,2013-04-23 01:47:00,
2013-04-22 22:02:00,33.3,16.0,30.62,NE,48,1.0,2.0,49,0.00,,,0.00,weatherlink.com 1.10,2013-04-23 02:02:00,
2013-04-22 22:17:00,32.4,17.0,30.62,NE,49,0.0,3.0,53,0.00,,,0.00,weatherlink.com 1.10,2013-04-23 02:17:00,
2013-04-22 22:32:00,32.5,14.0,30.62,NE,50,1.0,1.0,47,0.00,,,0.00,weatherlink.com 1.10,2013-04-23 02:32:00,
2013-04-22 22:47:00,31.4,16.0,30.61,NE,48,1.0,4.0,54,0.00,,,0.00,weatherlink.com 1.10,2013-04-23 02:47:00,
2013-04-22 23:02:00,30.4,17.0,30.61,NE,51,1.0,3.0,59,0.00,,,0.00,weatherlink.com 1.10,2013-04-23 03:02:00,
2013-04-22 23:17:00,30.2,18.0,30.60,ENE,58,1.0,2.0,62,0.00,,,0.00,weatherlink.com 1.10,2013-04-23 03:17:00,
2013-04-22 23:32:00,29.8,19.0,30.60,NE,54,1.0,3.0,65,0.00,,,0.00,weatherlink.com 1.10,2013-04-23 03:32:00,
2013-04-22 23:47:00,29.8,18.0,30.60,NE,54,1.0,2.0,63,0.00,,,0.00,weatherlink.com 1.10,2013-04-23 03:47:00,